Map

Track Data

SID SEASON NUMBER BASIN SUBBASIN NAME ISO_TIME NATURE LAT LON WMO_WIND WMO_PRES WMO_AGENCY TRACK_TYPE DIST2LAND LANDFALL IFLAG USA_AGENCY USA_ATCF_ID USA_LAT USA_LON USA_RECORD USA_STATUS USA_WIND USA_PRES USA_SSHS USA_R34_NE USA_R34_SE USA_R34_SW USA_R34_NW USA_R50_NE USA_R50_SE USA_R50_SW USA_R50_NW USA_R64_NE USA_R64_SE USA_R64_SW USA_R64_NW USA_POCI USA_ROCI USA_RMW USA_EYE TOKYO_LAT TOKYO_LON TOKYO_GRADE TOKYO_WIND TOKYO_PRES TOKYO_R50_DIR TOKYO_R50_LONG TOKYO_R50_SHORT TOKYO_R30_DIR TOKYO_R30_LONG TOKYO_R30_SHORT TOKYO_LAND CMA_LAT CMA_LON CMA_CAT CMA_WIND CMA_PRES HKO_LAT HKO_LON HKO_CAT HKO_WIND HKO_PRES NEWDELHI_LAT NEWDELHI_LON NEWDELHI_GRADE NEWDELHI_WIND NEWDELHI_PRES NEWDELHI_CI NEWDELHI_DP NEWDELHI_POCI REUNION_LAT REUNION_LON REUNION_TYPE REUNION_WIND REUNION_PRES REUNION_TNUM REUNION_CI REUNION_RMW REUNION_R34_NE REUNION_R34_SE REUNION_R34_SW REUNION_R34_NW REUNION_R50_NE REUNION_R50_SE REUNION_R50_SW REUNION_R50_NW REUNION_R64_NE REUNION_R64_SE REUNION_R64_SW REUNION_R64_NW BOM_LAT BOM_LON BOM_TYPE BOM_WIND BOM_PRES BOM_TNUM BOM_CI BOM_RMW BOM_R34_NE BOM_R34_SE BOM_R34_SW BOM_R34_NW BOM_R50_NE BOM_R50_SE BOM_R50_SW BOM_R50_NW BOM_R64_NE BOM_R64_SE BOM_R64_SW BOM_R64_NW BOM_ROCI BOM_POCI BOM_EYE BOM_POS_METHOD BOM_PRES_METHOD NADI_LAT NADI_LON NADI_CAT NADI_WIND NADI_PRES WELLINGTON_LAT WELLINGTON_LON WELLINGTON_WIND WELLINGTON_PRES DS824_LAT DS824_LON DS824_STAGE DS824_WIND DS824_PRES TD9636_LAT TD9636_LON TD9636_STAGE TD9636_WIND TD9636_PRES TD9635_LAT TD9635_LON TD9635_WIND TD9635_PRES TD9635_ROCI NEUMANN_LAT NEUMANN_LON NEUMANN_CLASS NEUMANN_WIND NEUMANN_PRES MLC_LAT MLC_LON MLC_CLASS MLC_WIND MLC_PRES USA_GUST BOM_GUST BOM_GUST_PER REUNION_GUST REUNION_GUST_PER USA_SEAHGT USA_SEARAD_NE USA_SEARAD_SE USA_SEARAD_SW USA_SEARAD_NW STORM_SPEED STORM_DIR
1998064S09093 1998 16 SI WA ELSIE 1998-03-04 18:00:00 NR -9.00000 92.5000 main 1082 1082 O_____________ jtwc_sh SH271998 -9.00000 92.5000 20 -1 2 246
1998064S09093 1998 16 SI WA ELSIE 1998-03-04 21:00:00 NR -9.05001 92.3900 main 1097 1097 P_____________ SH271998 -9.05001 92.3900 20 -1 2 243
1998064S09093 1998 16 SI WA ELSIE 1998-03-05 00:00:00 NR -9.10000 92.3000 main 1105 1105 O_____________ jtwc_sh SH271998 -9.10000 92.3000 20 -1 2 236
1998064S09093 1998 16 SI WA ELSIE 1998-03-05 03:00:00 NR -9.14999 92.2425 main 1112 1112 P_____________ SH271998 -9.14999 92.2425 20 -1 1 223
1998064S09093 1998 16 SI WA ELSIE 1998-03-05 06:00:00 NR -9.20000 92.2000 main 1120 1120 O_____________ jtwc_sh SH271998 -9.20000 92.2000 20 -1 1 223
1998064S09093 1998 16 SI WA ELSIE 1998-03-05 09:00:00 NR -9.25000 92.1425 main 1128 1136 P_____________ SH271998 -9.25000 92.1425 20 -1 1 223
1998064S09093 1998 16 SI WA ELSIE 1998-03-05 12:00:00 NR -9.30000 92.1000 main 1136 1136 O_____________ jtwc_sh SH271998 -9.30000 92.1000 20 -1 1 197
1998064S09093 1998 16 SI WA ELSIE 1998-03-05 15:00:00 NR -9.35000 92.1000 main 1136 1136 P_____________ SH271998 -9.35000 92.1000 20 -1 1 0
1998064S09093 1998 16 SI WA ELSIE 1998-03-05 18:00:00 NR -9.40000 92.1000 main 1144 1144 O_____________ jtwc_sh SH271998 -9.40000 92.1000 20 -1 1 207
1998064S09093 1998 16 SI WA ELSIE 1998-03-05 21:00:00 NR -9.45000 92.0500 main 1153 1153 P_____________ SH271998 -9.45000 92.0500 20 -1 1 223
1998064S09093 1998 16 SI WA ELSIE 1998-03-06 00:00:00 NR -9.50000 92.0000 main 1160 1160 O_____________ jtwc_sh SH271998 -9.50000 92.0000 20 -1 1 207
1998064S09093 1998 16 SI WA ELSIE 1998-03-06 03:00:00 NR -9.55000 92.0000 main 1160 1160 P_____________ SH271998 -9.55000 92.0000 20 -1 1 0
1998064S09093 1998 16 SI WA ELSIE 1998-03-06 06:00:00 NR -9.60000 92.0000 main 1169 1169 O_____________ jtwc_sh SH271998 -9.60000 92.0000 20 -1 1 207
1998064S09093 1998 16 SI WA ELSIE 1998-03-06 09:00:00 NR -9.65000 91.9500 main 1169 1177 P_____________ SH271998 -9.65000 91.9500 20 -1 1 223
1998064S09093 1998 16 SI WA ELSIE 1998-03-06 12:00:00 NR -9.70000 91.9000 main 1184 1184 O_____________ jtwc_sh SH271998 -9.70000 91.9000 20 -1 1 207
1998064S09093 1998 16 SI WA ELSIE 1998-03-06 15:00:00 NR -9.75000 91.9000 main 1184 1184 P_____________ SH271998 -9.75000 91.9000 20 -1 1 0
1998064S09093 1998 16 SI WA ELSIE 1998-03-06 18:00:00 NR -9.80000 91.9000 main 1193 1193 O_____________ jtwc_sh SH271998 -9.80000 91.9000 20 -1 1 197
1998064S09093 1998 16 SI WA ELSIE 1998-03-06 21:00:00 NR -9.84250 91.8575 main 1193 1193 P_____________ SH271998 -9.84250 91.8575 20 -1 1 223
1998064S09093 1998 16 SI WA ELSIE 1998-03-07 00:00:00 NR -9.90000 91.8000 main 1208 1208 O_____________ jtwc_sh SH271998 -9.90000 91.8000 20 -1 2 214
1998064S09093 1998 16 SI WA ELSIE 1998-03-07 03:00:00 NR -9.99250 91.7500 main 1217 1217 P_____________ SH271998 -9.99250 91.7500 20 -1 2 207
1998064S09093 1998 16 SI WA ELSIE 1998-03-07 06:00:00 NR -10.1000 91.7000 main 1232 1232 O_____________ jtwc_sh SH271998 -10.1000 91.7000 20 -1 2 207
1998064S09093 1998 16 SI WA ELSIE 1998-03-07 09:00:00 NR -10.2075 91.6425 main 1248 1248 P_____________ SH271998 -10.2075 91.6425 20 -1 2 207
1998064S09093 1998 16 SI WA ELSIE 1998-03-07 12:00:00 NR -10.3000 91.6000 main 1257 1257 O_____________ jtwc_sh SH271998 -10.3000 91.6000 20 -1 1 0
1998064S09093 1998 16 SI WA ELSIE 1998-03-07 15:00:00 NR -10.3350 91.6150 main 1257 1257 P_____________ SH271998 -10.3350 91.6150 20 -1 1 0
1998064S09093 1998 16 SI WA ELSIE 1998-03-07 18:00:00 NR -10.4000 91.6000 main 1265 1265 O_____________ jtwc_sh SH271998 -10.4000 91.6000 20 -1 3 212
1998064S09093 1998 16 SI WA ELSIE 1998-03-07 21:00:00 NR -10.5700 91.4650 main 1289 1289 P_____________ SH271998 -10.5700 91.4650 20 -1 6 214
1998064S09093 1998 16 SI WA ELSIE 1998-03-08 00:00:00 TS -10.9333 91.2333 main 1336 1336 O____O______O_ jtwc_sh SH271998 -10.8000 91.3000 20 -1 -11.2000 91.1000 2 20 1006 1.50000 1.50000 -11.2000 91.1000 TC 15 1006 7 211
1998064S09093 1998 16 SI WA ELSIE 1998-03-08 03:00:00 TS -11.1937 91.0812 main 1369 1369 P____P______P_ SH271998 -11.0500 91.2000 20 -1 -11.3375 90.9625 2 20 1006 -11.3375 90.9625 TC 15 1006 6 212
1998064S09093 1998 16 SI WA ELSIE 1998-03-08 06:00:00 TS -11.4200 90.9200 main 1400 1400 O____O______O_ jtwc_sh SH271998 -11.3000 91.1000 20 -1 -11.5000 90.8000 2 20 1006 1.50000 1.50000 -11.5000 90.8000 TC 15 1006 6 219
1998064S09093 1998 16 SI WA ELSIE 1998-03-08 09:00:00 TS -11.6358 90.7192 main 1431 1431 P____P______P_ SH271998 -11.5075 90.9575 20 -1 -11.7000 90.6000 2 20 1005 -11.7000 90.6000 TC 17 1005 6 223
1998064S09093 1998 16 SI WA ELSIE 1998-03-08 12:00:00 TS -11.8333 90.5333 main 1462 1462 O____O______O_ jtwc_sh SH271998 -11.7000 90.8000 20 -1 -11.9000 90.4000 2 20 1005 1.50000 1.50000 -11.9000 90.4000 TC 20 1005 5 222
1998064S09093 1998 16 SI WA ELSIE 1998-03-08 15:00:00 TS -12.0050 90.3833 main 1487 1487 P____P______P_ SH271998 -11.9000 90.6500 20 -1 -12.0575 90.2499 2 20 1005 -12.0575 90.2499 TC 20 1005 4 221
1998064S09093 1998 16 SI WA ELSIE 1998-03-08 18:00:00 TS -12.1667 90.2333 main 1518 1518 O____O______O_ jtwc_sh SH271998 -12.1000 90.5000 20 -1 -12.2000 90.1000 2 20 1005 1.50000 1.50000 -12.2000 90.1000 TC 20 1005 5 224
1998064S09093 1998 16 SI WA ELSIE 1998-03-08 21:00:00 TS -12.3358 90.0550 main 1533 1533 P____P______P_ SH271998 -12.3075 90.3650 20 -1 -12.3500 89.9000 2 20 1005 -12.3500 89.9000 TC 20 1005 5 227
1998064S09093 1998 16 SI MM ELSIE 1998-03-09 00:00:00 TS -12.5000 89.8667 20 1005 reunion main 1564 1564 O____O______O_ jtwc_sh SH271998 -12.5000 90.2000 20 -1 -12.5000 89.7000 2 20 1005 1.50000 1.50000 -12.5000 89.7000 TC 20 1005 5 228
1998064S09093 1998 16 SI MM ELSIE 1998-03-09 03:00:00 TS -12.6600 89.6833 main 1596 1596 P____P______P_ SH271998 -12.6650 89.9500 20 -1 -12.6575 89.5500 2 20 1005 -12.6575 89.5500 TC 20 1005 5 230
1998064S09093 1998 16 SI MM ELSIE 1998-03-09 06:00:00 TS -12.8000 89.5000 20 1005 reunion main 1618 1618 O____O______O_ jtwc_sh SH271998 -12.8000 89.7000 20 -1 -12.8000 89.4000 2 20 1005 1.50000 1.50000 -12.8000 89.4000 TC 20 1005 4 234
1998064S09093 1998 16 SI MM ELSIE 1998-03-09 09:00:00 TS -12.9100 89.3291 main 1641 1641 P____P______P_ SH271998 -12.9149 89.5425 22 -1 -12.9075 89.2225 2 20 1005 -12.9075 89.2225 TC 20 1005 4 241
1998064S09093 1998 16 SI MM ELSIE 1998-03-09 12:00:00 TS -13.0000 89.1333 20 1005 reunion main 1663 1663 O____O______O_ jtwc_sh SH271998 -13.0000 89.4000 25 -1 -13.0000 89.0000 2 20 1005 1.50000 1.50000 -13.0000 89.0000 TC 20 1005 5 247
1998064S09093 1998 16 SI MM ELSIE 1998-03-09 15:00:00 TS -13.0958 88.8867 main 1686 1686 P____P______P_ SH271998 -13.0574 89.2300 25 -1 -13.1150 88.7150 2 20 1005 -13.1150 88.7150 TC 20 1005 5 252
1998064S09093 1998 16 SI MM ELSIE 1998-03-09 18:00:00 TS -13.1667 88.6000 20 1005 reunion main 1716 1716 O____O______O_ jtwc_sh SH271998 -13.1000 89.0000 25 -1 -13.2000 88.4000 2 20 1005 1.50000 1.50000 -13.2000 88.4000 TC 20 1005 6 261
1998064S09093 1998 16 SI MM ELSIE 1998-03-09 21:00:00 TS -13.1883 88.2958 main 1738 1738 P____P______P_ SH271998 -13.1500 88.6725 25 -1 -13.2074 88.1074 2 20 1005 -13.2074 88.1074 TC 20 1005 6 267
1998064S09093 1998 16 SI MM ELSIE 1998-03-10 00:00:00 TS -13.2000 87.9667 20 1005 reunion main 1761 1761 O____O______O_ jtwc_sh SH271998 -13.2000 88.3000 25 -1 -13.2000 87.8000 2 20 1005 1.50000 1.50000 -13.2000 87.8000 TC 20 1005 7 266
1998064S09093 1998 16 SI MM ELSIE 1998-03-10 03:00:00 TS -13.2375 87.6241 main 1791 1791 P____P______P_ SH271998 -13.2424 87.9574 25 -1 -13.2350 87.4575 2 20 1005 -13.2350 87.4575 TC 20 1005 7 262
1998064S09093 1998 16 SI MM ELSIE 1998-03-10 06:00:00 TS -13.3000 87.2667 20 1005 reunion main 1822 1822 O____O______O_ jtwc_sh SH271998 -13.3000 87.6000 25 -1 -13.3000 87.1000 2 20 1005 1.50000 1.50000 -13.3000 87.1000 TC 20 1005 7 259
1998064S09093 1998 16 SI MM ELSIE 1998-03-10 09:00:00 TS -13.3750 86.8924 main 1861 1861 P____P______P_ SH271998 -13.3850 87.1925 25 -1 -13.3700 86.7424 2 20 1004 -13.3700 86.7424 TC 20 1004 7 254
1998064S09093 1998 16 SI MM ELSIE 1998-03-10 12:00:00 TS -13.5000 86.5333 20 1004 reunion main 1900 1900 O____O______O_ jtwc_sh SH271998 -13.5000 86.8000 25 -1 -13.5000 86.4000 2 20 1004 1.50000 1.50000 -13.5000 86.4000 TC 20 1004 7 244
1998064S09093 1998 16 SI MM ELSIE 1998-03-10 15:00:00 TS -13.6840 86.2382 main 1939 1939 P____P______P_ SH271998 -13.6273 86.4999 25 -1 -13.7124 86.1074 2 20 1004 -13.7124 86.1074 TC 20 1004 7 233
1998064S09093 1998 16 SI MM ELSIE 1998-03-10 18:00:00 TS -13.9333 85.9333 20 1004 reunion main 1978 1978 O____O______O_ jtwc_sh SH271998 -13.8000 86.2000 25 -1 -14.0000 85.8000 2 20 1004 1.50000 1.50000 -14.0000 85.8000 TC 20 1004 9 231
1998064S09093 1998 16 SI MM ELSIE 1998-03-10 21:00:00 TS -14.2250 85.5433 main 2032 2032 P____P______P_ SH271998 -14.0200 85.8149 25 -1 -14.3275 85.4075 2 22 1003 -14.3275 85.4075 TC 22 1003 10 231
1998064S09093 1998 16 SI MM ELSIE 1998-03-11 00:00:00 TS -14.5667 85.1333 25 1002 reunion main 2094 2094 O____O______O_ jtwc_sh SH271998 -14.3000 85.4000 25 -1 -14.7000 85.0000 2 25 1002 2.00000 2.00000 -14.7000 85.0000 TC 25 1002 11 227
1998064S09093 1998 16 SI MM ELSIE 1998-03-11 03:00:00 TS -14.9449 84.7591 main 2141 2141 P____P______P_ SH271998 -14.6350 84.9925 25 -1 -15.0999 84.6424 2 25 1002 -15.0999 84.6424 TC 25 1002 10 223
1998064S09093 1998 16 SI MM ELSIE 1998-03-11 06:00:00 TS -15.3333 84.4000 25 1002 reunion main 2203 2203 O____O______O_ jtwc_sh SH271998 -15.0000 84.6000 25 -1 -15.5000 84.3000 2 25 1002 2.00000 2.00000 -15.5000 84.3000 TC 25 1002 10 223
1998064S09093 1998 16 SI MM ELSIE 1998-03-11 09:00:00 TS -15.6933 84.0374 main 2265 2265 P____P______P_ SH271998 -15.3499 84.2423 27 -1 -15.8650 83.9350 2 25 1001 -15.8650 83.9350 TC 27 1001 10 224
1998064S09093 1998 16 SI MM ELSIE 1998-03-11 12:00:00 TS -16.0333 83.7000 25 1000 reunion main 2311 2311 O____O______O_ jtwc_sh SH271998 -15.7000 83.9000 30 -1 -16.2000 83.6000 2 25 1000 2.00000 2.00000 -16.2000 83.6000 TC 30 1000 9 223
1998064S09093 1998 16 SI MM ELSIE 1998-03-11 15:00:00 TS -16.3474 83.4065 main 2357 2357 P____P______P_ SH271998 -16.0424 83.5498 30 -1 -16.4999 83.3348 2 25 1000 -16.4999 83.3348 TC 30 1000 8 221
1998064S09093 1998 16 SI MM ELSIE 1998-03-11 18:00:00 TS -16.6667 83.1333 25 1000 reunion main 2411 2411 O____O______O_ jtwc_sh SH271998 -16.4000 83.2000 30 -1 -16.8000 83.1000 2 25 1000 2.00000 2.00000 -16.8000 83.1000 TC 30 1000 9 218
1998064S09093 1998 16 SI MM ELSIE 1998-03-11 21:00:00 TS -17.0358 82.8351 main 2457 2457 P____P______P_ SH271998 -16.8075 82.8351 32 -1 -17.1500 82.8350 2 27 998 -17.1500 82.8350 TC 32 998 9 217
1998064S09093 1998 16 SI MM ELSIE 1998-03-12 00:00:00 TS -17.4000 82.5667 30 997 reunion main 2503 2503 O____O______O_ jtwc_sh SH271998 -17.2000 82.5000 35 0 -17.5000 82.6000 2 30 997 2.50000 2.50000 -17.5000 82.6000 TC 35 997 8 214
1998064S09093 1998 16 SI MM ELSIE 1998-03-12 03:00:00 TS -17.7150 82.3582 main 2542 2542 P____P______P_ SH271998 -17.5149 82.2198 37 0 -17.8150 82.4274 2 32 994 -17.8150 82.4274 TC 40 994 7 210
1998064S09093 1998 16 SI MM ELSIE 1998-03-12 06:00:00 TS -18.0000 82.2000 35 992 reunion main 2573 2557 O____O______O_ jtwc_sh SH271998 -17.8000 82.0000 40 0 -18.1000 82.3000 3 35 992 3.00000 3.00000 -18.1000 82.3000 TC 45 992 6 206
1998064S09093 1998 16 SI MM ELSIE 1998-03-12 09:00:00 TS -18.2741 82.0732 main 2557 2543 P____P______P_ SH271998 -18.1074 81.8349 45 0 -18.3575 82.1924 3 40 988 -18.3575 82.1924 TC 50 988 6 203
1998064S09093 1998 16 SI MM ELSIE 1998-03-12 12:00:00 TS -18.5333 81.9667 45 985 reunion main 2543 2528 O____O______O_ jtwc_sh SH271998 -18.4000 81.7000 50 0 -18.6000 82.1000 3 45 985 3.50000 3.50000 -18.6000 82.1000 TC 55 985 6 203
1998064S09093 1998 16 SI MM ELSIE 1998-03-12 15:00:00 TS -18.7858 81.8475 main 2518 2504 P____P______P_ SH271998 -18.6575 81.5425 55 0 -18.8500 82.0000 3 50 980 -18.8500 82.0000 TC 62 980 5 204
1998064S09093 1998 16 SI MM ELSIE 1998-03-12 18:00:00 TS -19.0333 81.7333 55 975 reunion main 2504 2490 O____O______O_ jtwc_sh SH271998 -18.9000 81.4000 60 0 -19.1000 81.9000 3 55 975 4.00000 4.00000 -19.1000 81.9000 TC 70 975 6 203
1998064S09093 1998 16 SI MM ELSIE 1998-03-12 21:00:00 TS -19.3008 81.6184 main 2490 2477 P____P______P_ SH271998 -19.1575 81.2850 75 1 -19.3725 81.7850 3 55 975 -19.3725 81.7850 TC 70 975 5 201
1998064S09093 1998 16 SI MM ELSIE 1998-03-13 00:00:00 TS -19.5333 81.5333 55 975 reunion main 2477 2475 O____O______O_ jtwc_sh SH271998 -19.4000 81.2000 90 2 -19.6000 81.7000 3 55 975 3.50000 4.00000 -19.6000 81.7000 TC 70 975 4 194
1998064S09093 1998 16 SI MM ELSIE 1998-03-13 03:00:00 TS -19.6867 81.5116 main 2475 2473 P____P______P_ SH271998 -19.6150 81.1350 90 2 -19.7225 81.6999 3 55 975 -19.7225 81.6999 TC 70 975 3 186
1998064S09093 1998 16 SI MM ELSIE 1998-03-13 06:00:00 TS -19.8000 81.5000 55 975 reunion main 2473 2472 O____O______O_ jtwc_sh SH271998 -19.8000 81.1000 90 2 -19.8000 81.7000 3 55 975 3.50000 4.00000 -19.8000 81.7000 TC 70 975 2 192
1998064S09093 1998 16 SI MM ELSIE 1998-03-13 09:00:00 TS -19.9191 81.4608 main 2472 2461 P____P______P_ SH271998 -19.9575 81.0925 90 2 -19.8999 81.6450 3 52 976 -19.8999 81.6450 TC 67 976 3 208
1998064S09093 1998 16 SI MM ELSIE 1998-03-13 12:00:00 TS -20.0333 81.3667 50 978 reunion main 2461 2438 O____O______O_ jtwc_sh SH271998 -20.1000 81.1000 90 2 -20.0000 81.5000 3 50 978 3.50000 4.00000 -20.0000 81.5000 TC 65 978 3 226
1998064S09093 1998 16 SI MM ELSIE 1998-03-13 15:00:00 TS -20.1575 81.1967 main 2438 2417 P____P______P_ SH271998 -20.2575 81.1150 82 1 -20.1075 81.2375 3 47 980 -20.1075 81.2375 TC 60 980 4 238
1998064S09093 1998 16 SI MM ELSIE 1998-03-13 18:00:00 TS -20.2667 80.9667 45 983 reunion main 2417 2386 O____O______O_ jtwc_sh SH271998 -20.4000 81.1000 75 1 -20.2000 80.9000 3 45 983 3.00000 3.50000 -20.2000 80.9000 TC 55 983 5 250
1998064S09093 1998 16 SI MM ELSIE 1998-03-13 21:00:00 TS -20.3359 80.6850 main 2386 2354 P____P______P_ SH271998 -20.5075 81.0150 75 1 -20.2501 80.5200 3 45 984 -20.2501 80.5200 TC 55 984 5 255
1998064S09093 1998 16 SI MM ELSIE 1998-03-14 00:00:00 TS -20.4000 80.4333 45 985 reunion main 2354 2342 O____O______O_ jtwc_sh SH271998 -20.6000 80.9000 75 1 -20.3000 80.2000 3 45 985 3.00000 3.50000 -20.3000 80.2000 TC 55 985 4 245
1998064S09093 1998 16 SI MM ELSIE 1998-03-14 03:00:00 TS -20.4949 80.3158 main 2342 2331 P____P______P_ SH271998 -20.7000 80.8075 72 1 -20.3924 80.0699 3 42 986 -20.3924 80.0699 TC 52 986 3 223
1998064S09093 1998 16 SI MM ELSIE 1998-03-14 06:00:00 TS -20.6000 80.2333 40 987 reunion main 2331 2320 O____O______O_ jtwc_sh SH271998 -20.8000 80.7000 70 1 -20.5000 80.0000 3 40 987 3.00000 3.50000 -20.5000 80.0000 TC 50 987 3 223
1998064S09093 1998 16 SI MM ELSIE 1998-03-14 09:00:00 TS -20.6899 80.1182 main 2320 2299 P____P______P_ SH271998 -20.9000 80.5650 67 1 -20.5848 79.8948 3 38 988 -20.5848 79.8948 TC 47 988 3 235
1998064S09093 1998 16 SI MM ELSIE 1998-03-14 12:00:00 TS -20.8000 79.9333 37 990 reunion main 2299 2267 O____O______O_ jtwc_sh SH271998 -21.0000 80.4000 65 1 -20.7000 79.7000 3 37 990 2.50000 3.00000 -20.7000 79.7000 TC 45 990 5 240
1998064S09093 1998 16 SI MM ELSIE 1998-03-14 15:00:00 TS -20.9568 79.6201 main 2267 2236 P____P______P_ SH271998 -21.0999 80.2299 62 0 -20.8853 79.3152 3 36 991 -20.8853 79.3152 TC 45 991 7 242
1998064S09093 1998 16 SI MM ELSIE 1998-03-14 18:00:00 TS -21.1333 79.2667 35 992 reunion main 2236 2204 O____O______O_ jtwc_sh SH271998 -21.2000 80.0000 60 0 -21.1000 78.9000 3 35 992 2.50000 3.00000 -21.1000 78.9000 TC 45 992 7 241
1998064S09093 1998 16 SI MM ELSIE 1998-03-14 21:00:00 TS -21.2950 78.9583 main 2204 2173 P____P______P_ SH271998 -21.2850 79.6799 55 0 -21.2999 78.5975 3 32 993 -21.2999 78.5975 TC 42 993 6 238
1998064S09093 1998 16 SI MM ELSIE 1998-03-15 00:00:00 TS -21.4667 78.7000 30 995 reunion main 2173 2152 O____O______O_ jtwc_sh SH271998 -21.4000 79.3000 50 0 -21.5000 78.4000 2 30 995 2.00000 2.50000 -21.5000 78.4000 TC 40 995 6 229
1998064S09093 1998 16 SI MM ELSIE 1998-03-15 03:00:00 TS -21.6692 78.4983 main 2152 2142 P____P______P_ SH271998 -21.5927 78.8702 47 0 -21.7074 78.3124 2 30 996 -21.7074 78.3124 TC 37 996 5 218
1998064S09093 1998 16 SI MM ELSIE 1998-03-15 06:00:00 TS -21.8667 78.3667 30 997 reunion main 2142 2132 O____O______O_ jtwc_sh SH271998 -21.8000 78.5000 45 0 -21.9000 78.3000 2 30 997 2.00000 2.50000 -21.9000 78.3000 TC 35 997 4 207
1998064S09093 1998 16 SI MM ELSIE 1998-03-15 09:00:00 TS -22.0041 78.3115 main 2132 2132 P____P______P_ SH271998 -21.9423 78.3048 45 0 -22.0350 78.3148 2 29 997 -22.0350 78.3148 TC 35 997 3 196
1998064S09093 1998 16 SI MM ELSIE 1998-03-15 12:00:00 TS -22.1667 78.2667 28 998 reunion main 2132 2122 O____O______O_ jtwc_sh SH271998 -22.1000 78.2000 45 0 -22.2000 78.3000 2 28 998 2.00000 2.50000 -22.2000 78.3000 TC 35 998 4 199
1998064S09093 1998 16 SI MM ELSIE 1998-03-15 15:00:00 TS -22.4250 78.1558 main 2123 2104 P____P______P_ SH271998 -22.3350 78.0925 45 0 -22.4700 78.1875 2 26 999 -22.4700 78.1875 TC 32 999 6 204
1998064S09093 1998 16 SI MM ELSIE 1998-03-15 18:00:00 TS -22.7333 78.0000 25 1000 reunion main 2104 2086 O____O______O_ jtwc_sh SH271998 -22.6000 78.0000 45 0 -22.8000 78.0000 2 25 1000 2.00000 2.00000 -22.8000 78.0000 TC 30 1000 7 207
1998064S09093 1998 16 SI MM ELSIE 1998-03-15 21:00:00 TS -23.0500 77.8076 main 2087 2069 P____P______P_ SH271998 -22.8350 77.9074 42 0 -23.1576 77.7577 2 25 1000 -23.1576 77.7577 TC 30 1000 7 210
1998064S09093 1998 16 SI MM ELSIE 1998-03-16 00:00:00 TS -23.3667 77.6000 25 1000 reunion main 2070 2052 O____O______O_ jtwc_sh SH271998 -23.1000 77.8000 40 0 -23.5000 77.5000 2 25 1000 2.00000 2.00000 -23.5000 77.5000 TC 30 1000 7 211
1998064S09093 1998 16 SI MM ELSIE 1998-03-16 03:00:00 TS -23.6650 77.4091 main 2053 2036 P____P______P_ SH271998 -23.4500 77.6576 37 0 -23.7725 77.2849 2 25 1001 -23.7725 77.2849 TC 27 1001 7 211
1998064S09093 1998 16 SI MM ELSIE 1998-03-16 06:00:00 TS -23.9333 77.2333 25 1002 reunion main 2036 2027 O____O______O_ jtwc_sh SH271998 -23.8000 77.5000 35 0 -24.0000 77.1000 2 25 1002 1.50000 2.00000 -24.0000 77.1000 TC 25 1002 6 213
1998064S09093 1998 16 SI MM ELSIE 1998-03-16 09:00:00 TS -24.1575 77.0608 main 2030 2012 P____P______P_ SH271998 -24.0425 77.3275 35 0 -24.2150 76.9275 2 25 1002 -24.2150 76.9275 TC 25 1002 5 212
1998064S09093 1998 16 SI MM ELSIE 1998-03-16 12:00:00 TS -24.3667 76.9333 25 1002 reunion main 2014 2008 O____O______O_ jtwc_sh SH271998 -24.3000 77.2000 35 0 -24.4000 76.8000 2 25 1002 1.50000 2.00000 -24.4000 76.8000 TC 25 1002 5 205
1998064S09093 1998 16 SI MM ELSIE 1998-03-16 15:00:00 TS -24.5949 76.8401 main 2008 2008 P____P______P_ SH271998 -24.6999 77.1401 35 0 -24.5424 76.6901 2 25 1002 -24.5424 76.6901 TC 25 1002 5 187
1998064S09093 1998 16 SI MM ELSIE 1998-03-16 18:00:00 TS -24.8333 76.8667 25 1003 reunion main 2022 2022 O____O______O_ jtwc_sh SH271998 -25.1000 77.2000 35 0 -24.7000 76.7000 2 25 1003 1.50000 2.00000 -24.7000 76.7000 TC 25 1003 5 158
1998064S09093 1998 16 SI MM ELSIE 1998-03-16 21:00:00 TS -25.0758 77.0542 main 2048 2048 P____P______P_ SH271998 -25.4026 77.4122 35 0 -24.9124 76.8752 2 22 1003 -24.9124 76.8752 TC 22 1003 7 138
1998064S09093 1998 16 SI MM ELSIE 1998-03-17 00:00:00 TS -25.3333 77.3667 20 1004 reunion main 2082 2082 O____O______O_ jtwc_sh SH271998 -25.6000 77.7000 35 0 -25.2000 77.2000 2 20 1004 1.50000 1.50000 -25.2000 77.2000 TC 20 1004 8 134
1998064S09093 1998 16 SI MM ELSIE 1998-03-17 03:00:00 TS -25.6567 77.7245 main 2120 2120 P____P______P_ SH271998 -25.6949 77.9351 35 0 -25.6376 77.6191 2 20 1004 -25.6376 77.6191 TC 20 1004 9 129
1998064S09093 1998 16 SI MM ELSIE 1998-03-17 06:00:00 TS -25.9000 78.1333 20 1005 reunion main 2164 2164 O____O______O_ jtwc_sh SH271998 -25.7000 78.2000 35 0 -26.0000 78.1000 2 20 1005 1.50000 1.50000 -26.0000 78.1000 TC 20 1005 8 113
1998064S09093 1998 16 SI MM ELSIE 1998-03-17 09:00:00 TS -25.9682 78.5375 main 2206 2206 P____P______P_ SH271998 -25.6800 78.5274 35 0 -26.1123 78.5425 2 20 1005 -26.1123 78.5425 TC 20 1005 8 87
1998064S09093 1998 16 SI MM ELSIE 1998-03-17 12:00:00 TS -25.8667 78.9667 20 1005 reunion main 2252 2250 O____O______O_ jtwc_sh SH271998 -25.6000 78.9000 35 0 -26.0000 79.0000 2 20 1005 1.50000 1.50000 -26.0000 79.0000 TC 20 1005 9 68
1998064S09093 1998 16 SI MM ELSIE 1998-03-17 15:00:00 TS -25.6358 79.4285 main 2285 2285 P____P______P_ SH271998 -25.4874 79.2848 35 0 -25.7100 79.5004 2 20 1005 -25.7100 79.5004 TC 20 1005 10 56
1998064S09093 1998 16 SI MM ELSIE 1998-03-17 18:00:00 TS -25.3000 79.9000 20 1005 reunion main 2329 2329 O____O______O_ jtwc_sh SH271998 -25.3000 79.7000 35 0 -25.3000 80.0000 2 20 1005 9.90000 1.50000 -25.3000 80.0000 TC 20 1005 11 51
1998064S09093 1998 16 SI MM ELSIE 1998-03-17 21:00:00 TS -24.9508 80.3624 main 2373 2372 P____P______P_ SH271998 -25.0374 80.1424 32 -1 -24.9074 80.4724 2 20 1005 -24.9074 80.4724 TC 20 1005 11 48
1998064S09093 1998 16 SI MM ELSIE 1998-03-18 00:00:00 TS -24.5667 80.8000 20 1005 reunion main 2408 2406 O____O______O_ jtwc_sh SH271998 -24.7000 80.6000 30 -1 -24.5000 80.9000 2 20 1005 9.90000 1.50000 -24.5000 80.9000 TC 20 1005 11 45
1998064S09093 1998 16 SI MM ELSIE 1998-03-18 03:00:00 TS -24.1692 81.2259 main 2443 2442 P____P______P_ SH271998 -24.3075 81.0726 30 -1 -24.1000 81.3025 2 1005 -24.1000 81.3025 TC 17 1005 11 41
1998064S09093 1998 16 SI MM ELSIE 1998-03-18 06:00:00 TS -23.7667 81.5667 1006 reunion main 2480 2479 O____O______O_ jtwc_sh SH271998 -23.9000 81.5000 30 -1 -23.7000 81.6000 6 1006 9.90000 -23.7000 81.6000 TC 15 1006 10 33
1998064S09093 1998 16 SI MM ELSIE 1998-03-18 09:00:00 TS -23.3732 81.7982 main 2497 2496 P____P______P_ SH271998 -23.5198 81.8298 27 -1 -23.2998 81.7825 6 1006 -23.2998 81.7825 TC 15 1006 8 20
1998064S09093 1998 16 SI MM ELSIE 1998-03-18 12:00:00 TS -22.9818 81.8818 1006 reunion main 2505 2493 O____O______O_ jtwc_sh SH271998 -23.2000 82.1000 25 -1 -22.9000 81.8000 6 1006 9.90000 -22.9000 81.8000 TC 15 1006 8 0
1998064S09093 1998 16 SI MM ELSIE 1998-03-18 15:00:00 TS -22.5943 81.8226 main 2493 2472 P____P______P_ SH271998 -22.9726 82.3526 25 -1 -22.4998 81.6901 6 1006 -22.4998 81.6901 TC 15 1006 9 338
1998064S09093 1998 16 SI MM ELSIE 1998-03-18 18:00:00 TS -22.1778 81.5333 1006 reunion main 2462 2410 O____O______O_ jtwc_sh SH271998 -22.8000 82.6000 25 -1 -22.1000 81.4000 6 1006 9.90000 -22.1000 81.4000 TC 15 1006 12 317
1998064S09093 1998 16 SI MM ELSIE 1998-03-18 21:00:00 TS -21.7077 80.9450 main 2400 2349 _____P______P_ SH271998 -1 -21.7077 80.9450 6 1006 -21.7077 80.9450 TC 15 1006 14 310
1998064S09093 1998 16 SI MM ELSIE 1998-03-19 00:00:00 TS -21.3000 80.4000 1007 reunion main 2349 2299 _____O______O_ -1 -21.3000 80.4000 6 1007 9.90000 -21.3000 80.4000 TC 15 1007 13 311
1998064S09093 1998 16 SI MM ELSIE 1998-03-19 03:00:00 TS -20.8573 79.9078 main 2299 2250 _____P______P_ -1 -20.8573 79.9078 6 1007 -20.8573 79.9078 TC 15 1007 13 314
1998064S09093 1998 16 SI MM ELSIE 1998-03-19 06:00:00 TS -20.4000 79.4000 1007 reunion main 2250 2191 _____O______O_ -1 -20.4000 79.4000 6 1007 9.90000 -20.4000 79.4000 TC 15 1007 14 313
1998064S09093 1998 16 SI MM ELSIE 1998-03-19 09:00:00 TS -19.9127 78.8122 main 2191 2143 _____P______P_ -1 -19.9127 78.8122 6 1007 -19.9127 78.8122 TC 15 1007 14 311
1998064S09093 1998 16 SI MM ELSIE 1998-03-19 12:00:00 TS -19.5000 78.3000 1007 reunion main 2143 2114 _____O______O_ -1 -19.5000 78.3000 6 1007 9.90000 -19.5000 78.3000 TC 15 1007 10 310
1998064S09093 1998 16 SI MM ELSIE 1998-03-19 15:00:00 TS -19.2548 77.9905 main 2114 2096 _____P______P_ -1 -19.2548 77.9905 6 1007 -19.2548 77.9905 TC 12 1007 6 310
1998064S09093 1998 16 SI MM ELSIE 1998-03-19 18:00:00 TS -19.1000 77.8000 1008 reunion main 2096 2087 _____O______O_ -1 -19.1000 77.8000 6 1008 9.90000 -19.1000 77.8000 TC 10 1008 5 314
1998064S09093 1998 16 SI MM ELSIE 1998-03-19 21:00:00 TS -18.9349 77.6426 main 2078 2069 _____P______P_ -1 -18.9349 77.6426 6 1008 -18.9349 77.6426 TC 10 1008 4 317
1998064S09093 1998 16 SI MM ELSIE 1998-03-20 00:00:00 TS -18.8000 77.5000 1008 reunion main 2069 2050 _____O______O_ -1 -18.8000 77.5000 6 1008 9.90000 -18.8000 77.5000 TC 10 1008 4 308
1998064S09093 1998 16 SI MM ELSIE 1998-03-20 03:00:00 TS -18.6926 77.3149 main 2050 2031 _____P______P_ -1 -18.6926 77.3149 6 1009 -18.6926 77.3149 TC 15 1009 4 298
1998064S09093 1998 16 SI MM ELSIE 1998-03-20 06:00:00 TS -18.6000 77.1000 1010 reunion main 2031 _____O______O_ -1 -18.6000 77.1000 6 1010 9.90000 -18.6000 77.1000 TC 20 1010 4 294

About IBTrACS Database

This database is a web-friendly format of International Best Track Archive for Climate Stewardship (IBTrACS), a global best track data archive curated by NOAA dating back to 1842.

Updated: 2021-10-08